Time;durP1;ratioP1;P1;durP2;ratioP2;P2;SDS_P1;SDS_P2;PMS_P1;PMS_P2;Temp;Humidity;BMP_temperature;BMP_pressure;BME280_temperature;BME280_humidity;BME280_pressure;Samples;Min_cycle;Max_cycle;Signal;HPM_P1;HPM_P2
2021/06/25 04:26:00;;;;;;;6.45;3.45;;;;;;;29.66;41.24;100178.41;5373339;26;20029;-86
2021/06/25 04:28:29;;;;;;;6.12;2.92;;;;;;;29.59;41.55;100186.19;5359143;26;20055;-86
2021/06/25 04:31:03;;;;;;;5.72;2.87;;;;;;;30.49;39.48;100188.00;5340695;26;20103;-86
2021/06/25 04:33:33;;;;;;;5.82;3.00;;;;;;;30.12;40.62;100185.09;5341337;26;20075;-83
2021/06/25 04:36:06;;;;;;;5.00;2.70;;;;;;;30.75;38.55;100190.16;5377546;26;20058;-84
2021/06/25 04:38:33;;;;;;;5.60;2.90;;;;;;;31.67;37.34;100184.09;5382497;26;20056;-86
2021/06/25 04:41:01;;;;;;;6.53;2.55;;;;;;;30.26;39.07;100181.12;5357598;26;20028;-84
2021/06/25 04:43:29;;;;;;;5.37;2.97;;;;;;;30.84;39.15;100183.03;5377854;26;20028;-83
2021/06/25 04:46:08;;;;;;;5.95;2.85;;;;;;;29.78;40.08;100187.28;5360234;26;20032;-86
2021/06/25 04:48:36;;;;;;;5.87;2.92;;;;;;;29.82;41.15;100181.44;5378786;26;20048;-83
2021/06/25 04:51:04;;;;;;;3.58;2.58;;;;;;;30.57;39.22;100189.16;5357086;26;20031;-86
2021/06/25 04:53:33;;;;;;;5.03;2.83;;;;;;;29.73;40.16;100184.97;5353885;26;20060;-83
2021/06/25 04:56:01;;;;;;;10.57;2.90;;;;;;;30.84;38.69;100180.31;5376027;26;20063;-83
2021/06/25 04:58:28;;;;;;;2.75;2.08;;;;;;;30.41;39.72;100187.84;5373944;26;20067;-84
2021/06/25 15:03:50;;;;;;;7.75;2.50;;;;;;;35.61;27.25;99964.63;5359111;26;20392;-86
2021/06/25 15:06:17;;;;;;;5.47;2.90;;;;;;;35.98;25.85;99959.41;5348014;26;20347;-86
2021/06/25 15:08:50;;;;;;;5.60;2.35;;;;;;;35.29;26.12;99965.66;5349613;26;20056;-84
2021/06/25 15:11:17;;;;;;;7.32;2.30;;;;;;;35.65;26.17;99957.78;5367945;26;20097;-87
2021/06/25 15:13:44;;;;;;;5.25;2.03;;;;;;;35.42;27.13;99957.75;5347605;26;20432;-86
2021/06/25 15:16:16;;;;;;;7.00;2.00;;;;;;;35.90;26.83;99966.62;5346917;26;20074;-86
2021/06/25 15:18:51;;;;;;;10.55;2.87;;;;;;;34.65;27.89;99973.94;5348773;26;20112;-88
2021/06/25 15:21:18;;;;;;;7.78;2.55;;;;;;;34.53;28.24;99978.00;5345999;26;20150;-89
2021/06/25 15:23:45;;;;;;;4.95;2.30;;;;;;;34.99;27.54;99990.00;5345975;26;20643;-85
2021/06/25 15:26:34;;;;;;;6.07;2.30;;;;;;;34.62;28.54;99989.78;5346240;26;20113;-88
2021/06/25 15:29:01;;;;;;;4.18;2.05;;;;;;;34.51;27.99;99983.66;5346839;26;20085;-88
2021/06/25 15:31:29;;;;;;;4.50;2.12;;;;;;;34.05;28.53;99990.69;5347418;26;20087;-89
2021/06/25 15:34:06;;;;;;;5.82;2.58;;;;;;;33.90;28.83;99995.94;5346378;26;20072;-90
2021/06/25 15:36:33;;;;;;;4.43;2.03;;;;;;;34.19;29.04;100003.66;5346289;26;20061;-88
2021/06/25 15:39:06;;;;;;;12.77;2.80;;;;;;;33.92;29.33;100013.00;5365682;26;20071;-88
2021/06/25 15:41:34;;;;;;;3.80;2.20;;;;;;;33.51;29.93;100018.38;5366122;26;20052;-88
2021/06/25 15:44:01;;;;;;;9.25;3.12;;;;;;;33.82;29.54;100015.84;5346320;26;20122;-89
2021/06/25 15:46:29;;;;;;;5.97;2.10;;;;;;;33.20;30.00;100018.91;5347215;26;20071;-89
2021/06/25 15:48:56;;;;;;;4.85;2.60;;;;;;;33.09;30.31;100021.06;5345805;26;20059;-88
2021/06/25 15:51:27;;;;;;;10.77;2.30;;;;;;;33.34;30.46;100019.31;5346502;26;20437;-88
2021/06/25 15:54:33;;;;;;;4.28;2.17;;;;;;;33.53;29.24;100024.50;5345722;26;20690;-88
2021/06/25 15:57:00;;;;;;;5.72;2.62;;;;;;;33.46;30.09;100009.81;5305370;27;20461;-87
2021/06/25 15:59:28;;;;;;;2.58;2.05;;;;;;;32.59;31.04;100017.22;5308879;27;20064;-84
2021/06/25 16:01:55;;;;;;;7.82;2.20;;;;;;;32.11;31.91;100023.97;5306381;27;20029;-89
2021/06/25 16:04:22;;;;;;;3.78;2.28;;;;;;;31.65;33.14;100029.47;5326505;27;20033;-87
2021/06/25 16:06:49;;;;;;;4.30;2.37;;;;;;;31.75;33.32;100029.38;5304698;27;20068;-87
2021/06/25 16:09:23;;;;;;;7.43;2.42;;;;;;;31.45;33.47;100017.03;5303600;27;20430;-88
2021/06/25 16:11:50;;;;;;;5.00;2.10;;;;;;;31.54;33.58;100010.66;5322801;27;20021;-88
2021/06/25 16:14:17;;;;;;;5.95;1.85;;;;;;;31.49;33.75;99993.13;5303756;27;20080;-87
2021/06/25 16:16:44;;;;;;;5.32;2.08;;;;;;;31.53;33.76;99991.81;5322069;27;20721;-84
2021/06/25 16:19:13;;;;;;;7.32;1.85;;;;;;;31.25;34.36;99994.53;5322301;27;20052;-88
2021/06/25 16:22:05;;;;;;;7.85;1.83;;;;;;;31.14;34.53;99987.44;5303258;27;20061;-88
2021/06/25 16:24:35;;;;;;;4.20;1.70;;;;;;;31.00;34.72;99977.97;5303739;27;20072;-85
2021/06/25 16:27:12;;;;;;;11.48;2.10;;;;;;;30.99;34.43;99976.25;5314988;27;20079;-89
2021/06/25 16:29:54;;;;;;;5.10;1.90;;;;;;;30.99;34.25;99987.09;5318282;27;20021;-85
2021/06/25 16:32:46;;;;;;;5.55;1.80;;;;;;;31.12;34.19;99994.91;5334019;26;20032;-84
2021/06/25 16:35:27;;;;;;;11.88;3.35;;;;;;;30.58;35.06;99987.53;5314596;27;20043;-87
2021/06/25 16:37:54;;;;;;;3.37;1.62;;;;;;;30.28;35.26;99984.91;5329357;27;20242;-88
2021/06/25 16:40:21;;;;;;;7.75;1.50;;;;;;;29.93;35.93;99984.63;5328982;27;20071;-88
2021/06/25 16:42:50;;;;;;;11.80;2.08;;;;;;;29.90;36.08;99974.94;5310940;27;20028;-87
2021/06/25 16:45:18;;;;;;;8.68;2.00;;;;;;;29.68;37.01;99953.56;5309490;27;20662;-89
2021/06/25 16:47:45;;;;;;;5.18;1.40;;;;;;;29.30;37.12;99972.31;5308530;27;20047;-86
2021/06/25 16:50:12;;;;;;;16.95;2.10;;;;;;;29.21;37.27;99959.62;5306407;27;20054;-87
2021/06/25 16:52:42;;;;;;;7.05;2.10;;;;;;;28.99;37.83;99966.06;5323975;27;20433;-87
2021/06/25 16:55:23;;;;;;;11.85;2.33;;;;;;;28.95;37.81;99961.94;5299003;27;20067;-86
2021/06/25 16:57:58;;;;;;;7.84;1.66;;;;;;;28.72;38.00;99959.44;5307856;26;20120;-86
2021/06/25 17:00:25;;;;;;;9.05;2.10;;;;;;;28.55;38.39;99959.19;5347615;26;20418;-87
2021/06/25 17:02:52;;;;;;;3.15;1.65;;;;;;;28.72;38.26;99948.63;5367609;26;20405;-87
2021/06/25 17:05:20;;;;;;;5.95;1.45;;;;;;;28.70;38.39;99956.00;5348935;26;20064;-87
2021/06/25 17:07:47;;;;;;;5.40;1.40;;;;;;;29.39;37.63;99948.97;5367426;26;20571;-86
2021/06/25 17:10:14;;;;;;;3.75;1.45;;;;;;;29.23;37.80;99948.66;5346971;26;20039;-86
2021/06/25 17:12:42;;;;;;;3.78;1.40;;;;;;;28.83;38.29;99923.34;5346069;26;20107;-84
2021/06/25 17:18:07;;;;;;;9.90;2.10;;;;;;;28.21;39.18;99916.22;5352320;26;20076;-83
2021/06/25 17:20:35;;;;;;;5.07;1.52;;;;;;;28.06;39.46;99915.66;5365148;26;20072;-87
2021/06/25 17:23:20;;;;;;;14.85;2.12;;;;;;;27.54;40.68;99923.66;5365061;26;20067;-88
2021/06/25 17:25:47;;;;;;;5.57;1.30;;;;;;;27.47;40.71;99903.56;5345049;26;20116;-87
2021/06/25 17:28:14;;;;;;;6.03;1.73;;;;;;;27.21;41.46;99894.09;5344792;26;20086;-85
2021/06/25 17:30:41;;;;;;;10.18;1.90;;;;;;;26.84;42.31;99895.28;5364510;26;20052;-86
2021/06/25 17:33:08;;;;;;;9.75;1.70;;;;;;;26.68;42.75;99892.13;5364637;26;20059;-87
2021/06/25 17:35:36;;;;;;;7.10;1.60;;;;;;;26.94;42.20;99917.81;5344619;26;20116;-86
2021/06/25 17:38:03;;;;;;;20.27;3.25;;;;;;;27.24;41.53;100052.97;5364934;26;20078;-88
2021/06/25 17:40:30;;;;;;;17.48;2.55;;;;;;;27.82;40.04;100124.66;5364813;26;20048;-87
2021/06/25 17:42:59;;;;;;;27.13;4.95;;;;;;;28.16;41.44;100150.72;5364320;26;20063;-87
2021/06/25 17:45:26;;;;;;;29.70;5.15;;;;;;;28.04;45.36;100172.34;5364446;26;20056;-87
2021/06/25 17:47:53;;;;;;;23.50;9.27;;;;;;;28.20;47.81;100179.19;5344803;26;20056;-85
2021/06/25 17:50:21;;;;;;;29.05;15.88;;;;;;;28.49;48.40;100160.56;5344748;26;20071;-85
2021/06/25 17:52:53;;;;;;;22.33;13.18;;;;;;;28.02;46.90;100120.31;5345757;26;20127;-86
2021/06/25 17:55:20;;;;;;;9.73;3.33;;;;;;;26.91;51.00;100105.88;5364349;26;20115;-87
2021/06/25 17:57:48;;;;;;;4.05;2.08;;;;;;;26.83;52.09;100076.84;5364508;26;20368;-86
2021/06/25 18:00:18;;;;;;;6.97;2.80;;;;;;;24.74;56.55;100037.63;5344213;26;20531;-85
2021/06/25 18:02:47;;;;;;;3.05;1.90;;;;;;;24.57;59.42;100033.44;5344332;26;20062;-86
2021/06/25 18:05:15;;;;;;;9.25;2.60;;;;;;;23.93;60.44;100029.75;5344387;26;20127;-86
2021/06/25 18:07:42;;;;;;;8.68;2.35;;;;;;;24.39;59.39;100021.25;5364943;26;20119;-86
2021/06/25 18:10:34;;;;;;;10.85;3.05;;;;;;;23.69;61.44;100021.50;5364742;26;20135;-85
2021/06/25 18:13:05;;;;;;;4.35;2.00;;;;;;;23.42;61.97;99998.22;5364348;26;20112;-86
2021/06/25 18:15:33;;;;;;;4.68;2.40;;;;;;;23.17;62.01;99992.72;5364215;26;20056;-85
2021/06/25 18:40:22;;;;;;;8.07;2.28;;;;;;;23.78;59.29;100311.47;5358932;26;20079;-87
2021/06/25 18:42:54;;;;;;;7.05;2.85;;;;;;;22.52;59.44;100243.06;5364390;26;20562;-86
2021/06/25 18:45:25;;;;;;;12.40;3.90;;;;;;;22.62;63.11;100259.47;5344957;26;20076;-86
2021/06/25 18:47:52;;;;;;;9.23;3.15;;;;;;;22.60;64.54;100272.06;5344294;26;20101;-86
2021/06/25 18:50:20;;;;;;;3.75;2.10;;;;;;;22.06;65.90;100271.53;5364232;26;20068;-87
2021/06/25 18:53:23;;;;;;;3.58;1.50;;;;;;;21.67;66.15;100260.25;5347002;26;20622;-86
2021/06/25 18:55:50;;;;;;;3.33;1.70;;;;;;;21.70;64.19;100253.87;5364056;26;20064;-86
2021/06/25 18:58:18;;;;;;;5.55;2.10;;;;;;;22.00;64.39;100243.28;5363882;26;20185;-86
2021/06/25 19:00:45;;;;;;;3.03;1.45;;;;;;;22.94;62.52;100243.31;5364089;26;20064;-85
2021/06/25 19:03:12;;;;;;;4.47;2.28;;;;;;;22.73;61.57;100257.00;5344105;26;20055;-87
2021/06/25 19:05:51;;;;;;;5.87;2.08;;;;;;;23.00;61.60;100264.41;5364194;26;20084;-87
2021/06/25 19:08:18;;;;;;;6.15;2.35;;;;;;;22.01;65.54;100258.41;5364489;26;20074;-86
2021/06/25 19:11:10;;;;;;;3.10;1.77;;;;;;;22.49;63.24;100248.59;5364201;26;20127;-85
2021/06/25 19:13:44;;;;;;;4.35;2.17;;;;;;;21.63;66.39;100241.81;5364339;26;20063;-86
2021/06/25 19:16:11;;;;;;;5.43;2.47;;;;;;;21.58;67.35;100238.50;5364283;26;20055;-86
2021/06/25 19:18:38;;;;;;;5.57;2.97;;;;;;;21.90;66.08;100240.28;5364352;26;20068;-86
2021/06/25 19:21:05;;;;;;;5.72;3.05;;;;;;;21.74;67.34;100242.09;5363535;26;20068;-88
2021/06/25 19:23:32;;;;;;;10.07;2.75;;;;;;;21.80;66.62;100233.72;5345151;26;20821;-86
2021/06/25 19:25:59;;;;;;;5.07;2.03;;;;;;;21.74;66.90;100223.37;5344656;26;20109;-85
2021/06/25 19:28:26;;;;;;;6.00;3.17;;;;;;;21.72;66.66;100211.88;5364482;26;20113;-86
2021/06/25 19:30:53;;;;;;;8.00;2.62;;;;;;;21.79;66.85;100237.31;5344100;26;20566;-86
2021/06/25 19:33:20;;;;;;;16.70;2.60;;;;;;;22.30;65.18;100256.81;5364190;26;20059;-86
2021/06/25 19:35:47;;;;;;;8.98;2.35;;;;;;;22.65;63.59;100267.31;5363821;26;20071;-86
2021/06/25 19:38:14;;;;;;;3.78;2.25;;;;;;;22.76;63.36;100270.22;5364057;26;20053;-86
2021/06/25 19:40:41;;;;;;;8.18;2.35;;;;;;;23.07;61.58;100266.63;5361112;26;20074;-85
2021/06/25 19:43:09;;;;;;;5.15;2.37;;;;;;;23.46;58.19;100270.53;5343791;26;20056;-84
2021/06/25 19:45:36;;;;;;;4.30;2.10;;;;;;;23.42;62.29;100266.31;5363944;26;20130;-87
2021/06/25 19:48:03;;;;;;;5.72;3.95;;;;;;;22.71;63.78;100269.66;5363854;26;20079;-86
2021/06/25 19:50:30;;;;;;;5.68;2.65;;;;;;;22.56;64.73;100270.50;5363802;26;20108;-87
2021/06/25 19:52:57;;;;;;;3.67;2.22;;;;;;;22.43;64.70;100273.03;5363945;26;20052;-86
2021/06/25 19:55:24;;;;;;;5.28;2.20;;;;;;;21.72;67.09;100278.72;5363975;26;20097;-87
2021/06/25 19:57:51;;;;;;;3.35;2.00;;;;;;;22.30;65.46;100278.22;5363788;26;20057;-87
2021/06/25 20:00:18;;;;;;;6.65;2.10;;;;;;;22.55;63.58;100275.00;5343785;26;20070;-85
2021/06/25 20:02:45;;;;;;;2.92;1.95;;;;;;;23.06;61.93;100270.28;5363755;26;20052;-86
2021/06/25 20:05:14;;;;;;;4.57;2.20;;;;;;;23.18;60.66;100247.25;5363871;26;20442;-87
2021/06/25 20:07:42;;;;;;;5.85;2.75;;;;;;;23.57;59.92;100249.28;5343540;26;20091;-86
2021/06/25 20:10:14;;;;;;;5.12;2.47;;;;;;;23.07;66.62;100239.84;5344317;26;20077;-86
2021/06/25 20:12:43;;;;;;;4.70;2.25;;;;;;;23.59;63.94;100233.09;5364433;26;20096;-87
2021/06/25 20:15:13;;;;;;;4.32;2.15;;;;;;;23.83;60.24;100221.81;5364818;26;20056;-86
2021/06/25 20:17:40;;;;;;;5.37;2.17;;;;;;;24.10;58.67;100233.44;5364856;26;20132;-87
2021/06/25 20:20:08;;;;;;;6.62;2.42;;;;;;;24.18;58.83;100230.28;5365074;26;20104;-87
2021/06/25 20:22:35;;;;;;;5.20;2.30;;;;;;;24.26;60.76;100236.84;5364556;26;20419;-87
2021/06/25 20:25:05;;;;;;;2.78;1.92;;;;;;;24.31;59.62;100247.31;5364677;26;20060;-86
2021/06/25 20:27:33;;;;;;;6.20;2.03;;;;;;;24.21;60.78;100248.88;5344690;26;20075;-87
2021/06/25 20:30:00;;;;;;;6.62;3.12;;;;;;;24.38;59.08;100255.81;5344602;26;20055;-86
2021/06/25 20:32:27;;;;;;;6.20;3.53;;;;;;;24.43;57.28;100257.25;5364596;26;20105;-87
2021/06/25 20:35:34;;;;;;;4.78;2.67;;;;;;;24.30;58.75;100258.16;5364850;26;20356;-87
2021/06/25 20:38:01;;;;;;;7.60;2.55;;;;;;;24.28;57.82;100262.75;5344544;26;20090;-86
2021/06/25 20:40:28;;;;;;;6.47;2.30;;;;;;;24.36;58.60;100260.44;5340713;26;20121;-86
2021/06/25 20:42:56;;;;;;;5.65;2.78;;;;;;;24.21;59.42;100262.31;5340777;26;20056;-85
2021/06/25 20:45:23;;;;;;;7.35;2.50;;;;;;;24.36;59.95;100261.28;5342272;26;20128;-86
2021/06/25 20:48:05;;;;;;;5.28;2.72;;;;;;;24.25;60.08;100266.50;5340308;26;20124;-86
2021/06/25 20:50:35;;;;;;;4.62;3.05;;;;;;;24.31;58.75;100262.56;5342259;26;20536;-86
2021/06/25 20:53:02;;;;;;;5.43;2.72;;;;;;;24.38;59.18;100266.56;5341901;26;20049;-86
2021/06/25 20:55:29;;;;;;;6.85;2.90;;;;;;;24.16;57.87;100270.63;5342432;26;20095;-85
2021/06/25 20:57:56;;;;;;;3.50;2.53;;;;;;;23.96;60.98;100277.28;5340710;26;20091;-86
2021/06/25 21:00:24;;;;;;;6.32;2.30;;;;;;;23.76;61.17;100296.44;5340759;26;20124;-85
2021/06/25 21:02:51;;;;;;;6.62;2.83;;;;;;;23.76;60.69;100285.72;5340566;26;20066;-85
2021/06/25 21:05:18;;;;;;;3.42;2.40;;;;;;;23.89;59.67;100286.69;5340798;26;20060;-85
2021/06/25 21:07:45;;;;;;;3.50;2.30;;;;;;;23.96;59.38;100288.00;5342060;26;20113;-84
2021/06/25 21:10:14;;;;;;;9.38;2.67;;;;;;;23.72;59.83;100293.09;5340791;26;20123;-85
2021/06/25 21:12:41;;;;;;;2.70;2.03;;;;;;;23.91;57.92;100295.47;5340787;26;20057;-86
2021/06/25 21:15:09;;;;;;;5.75;2.25;;;;;;;23.88;57.21;100294.81;5340525;26;20385;-85
2021/06/25 21:17:36;;;;;;;3.95;1.98;;;;;;;24.01;57.51;100290.41;5341932;26;20061;-85
2021/06/25 21:20:03;;;;;;;5.30;1.92;;;;;;;24.14;57.56;100293.16;5340563;26;20540;-86
2021/06/25 21:22:44;;;;;;;8.07;2.47;;;;;;;24.14;57.08;100290.47;5278564;27;20165;-86
2021/06/25 21:25:11;;;;;;;7.07;3.15;;;;;;;24.02;56.61;100294.81;5294890;27;20054;-85
2021/06/25 21:27:38;;;;;;;3.22;1.95;;;;;;;23.91;57.35;100291.94;5294682;27;20084;-86
2021/06/25 21:30:06;;;;;;;4.30;1.80;;;;;;;24.01;57.41;100296.62;5294949;27;20101;-84
2021/06/25 21:32:33;;;;;;;4.68;2.03;;;;;;;23.97;57.23;100296.91;5295022;27;20087;-83
2021/06/25 21:35:01;;;;;;;4.03;1.83;;;;;;;23.88;58.72;100306.41;5276831;27;20068;-84
2021/06/25 21:37:28;;;;;;;2.55;1.50;;;;;;;24.07;57.05;100310.63;5294491;27;20111;-83
2021/06/25 21:39:55;;;;;;;5.80;2.22;;;;;;;23.97;56.76;100299.59;5276630;27;20481;-82
2021/06/25 21:42:21;;;;;;;4.07;1.62;;;;;;;24.11;56.58;100294.22;5294996;27;20055;-83
2021/06/25 21:45:26;;;;;;;;;;;;;;;;;;;;;
2021/06/25 21:48:01;;;;;;;3.40;1.83;;;;;;;23.95;54.87;100299.69;5293235;27;20073;-82
2021/06/25 21:50:27;;;;;;;2.90;1.92;;;;;;;24.12;56.13;100304.00;5294864;27;20111;-82
2021/06/25 21:52:55;;;;;;;3.70;1.65;;;;;;;23.02;60.45;100308.06;5294858;27;20048;-83
2021/06/25 21:55:22;;;;;;;7.20;2.05;;;;;;;22.76;60.77;100315.75;5276675;27;20061;-83
2021/06/25 21:57:49;;;;;;;2.45;1.20;;;;;;;22.76;60.87;100321.09;5295276;27;20076;-83
2021/06/25 22:00:21;;;;;;;5.70;1.60;;;;;;;22.81;60.47;100308.31;5322948;26;20441;-84
2021/06/25 22:02:48;;;;;;;2.92;1.60;;;;;;;22.99;59.34;100310.91;5342031;26;20111;-86
2021/06/25 22:05:15;;;;;;;2.90;1.50;;;;;;;22.34;61.38;100314.56;5342215;26;20052;-84
2021/06/25 22:07:42;;;;;;;2.90;1.48;;;;;;;21.83;62.61;100321.81;5341865;26;20119;-85
2021/06/25 22:10:16;;;;;;;3.28;1.70;;;;;;;21.85;62.70;100314.53;5342098;26;20060;-85
2021/06/25 22:12:44;;;;;;;2.25;1.30;;;;;;;22.20;61.59;100312.66;5342057;26;20089;-85
2021/06/25 22:15:12;;;;;;;2.83;1.50;;;;;;;21.98;62.06;100309.41;5340656;26;20572;-84
2021/06/25 22:17:39;;;;;;;3.58;1.65;;;;;;;22.17;61.27;100306.59;5342220;26;20074;-84
2021/06/25 22:20:07;;;;;;;2.53;1.30;;;;;;;21.85;62.46;100316.34;5342145;26;20064;-84
2021/06/25 22:22:34;;;;;;;2.35;1.15;;;;;;;22.15;61.18;100319.19;5340590;26;20056;-85
2021/06/25 22:25:02;;;;;;;4.93;1.60;;;;;;;22.18;61.22;100316.38;5342481;26;20067;-85
2021/06/25 22:28:10;;;;;;;1.40;1.27;;;;;;;22.41;60.05;100323.12;5342048;26;20522;-85
2021/06/25 22:30:42;;;;;;;1.65;1.20;;;;;;;22.38;59.44;100334.00;5342167;26;20064;-85
2021/06/25 22:33:10;;;;;;;1.42;1.15;;;;;;;22.31;59.10;100333.47;5341689;26;20052;-85
2021/06/25 22:35:36;;;;;;;4.00;1.35;;;;;;;22.20;60.54;100343.91;5342048;26;20698;-85
2021/06/25 22:38:04;;;;;;;3.35;1.50;;;;;;;22.45;57.90;100349.63;5341642;26;20071;-84
2021/06/25 22:40:32;;;;;;;4.30;1.15;;;;;;;22.54;57.01;100350.06;5349769;26;20093;-85
2021/06/25 22:42:59;;;;;;;7.12;1.73;;;;;;;22.49;57.83;100357.50;5364279;26;20063;-85
2021/06/25 22:45:26;;;;;;;6.80;1.50;;;;;;;22.73;58.18;100358.78;5364172;26;20094;-85
2021/06/25 22:47:53;;;;;;;2.60;1.60;;;;;;;22.89;57.77;100365.00;5344355;26;20182;-85
2021/06/25 22:50:20;;;;;;;3.53;0.82;;;;;;;22.90;56.78;100364.03;5364546;26;20111;-85
2021/06/25 22:52:47;;;;;;;2.42;1.10;;;;;;;22.96;56.19;100368.22;5364242;26;20802;-84
2021/06/25 22:55:14;;;;;;;5.90;1.65;;;;;;;22.90;54.96;100372.06;5364351;26;20418;-83
2021/06/25 22:57:41;;;;;;;8.38;1.98;;;;;;;22.85;54.76;100374.19;5364415;26;20521;-84
